createdAt,value
2018-09-24T00:01:05.746Z,101471.25
2018-09-24T00:03:34.887Z,101478.38
2018-09-24T00:06:04.520Z,101481.27
2018-09-24T00:08:33.537Z,101496.94
2018-09-24T00:11:02.390Z,101499.45
2018-09-24T00:13:31.599Z,101505.30
2018-09-24T00:16:00.416Z,101512.90
2018-09-24T00:18:29.209Z,101520.81
2018-09-24T00:20:58.102Z,101522.05
2018-09-24T00:23:27.237Z,101525.09
2018-09-24T00:25:56.157Z,101529.77
2018-09-24T00:28:24.989Z,101535.78
2018-09-24T00:30:54.125Z,101538.59
2018-09-24T00:33:23.011Z,101539.53
2018-09-24T00:35:51.905Z,101544.56
2018-09-24T00:38:21.041Z,101543.79
2018-09-24T00:40:49.903Z,101554.83
2018-09-24T00:43:18.761Z,101549.14
2018-09-24T00:45:47.914Z,101563.08
2018-09-24T00:48:16.833Z,101563.20
2018-09-24T00:50:45.672Z,101562.09
2018-09-24T00:53:19.466Z,101560.64
2018-09-24T00:55:48.375Z,101561.27
2018-09-24T00:58:17.232Z,101565.72
2018-09-24T01:00:46.093Z,101569.34
2018-09-24T01:03:14.922Z,101562.80
2018-09-24T01:05:44.045Z,101575.10
2018-09-24T01:08:12.906Z,101575.98
2018-09-24T01:10:41.854Z,101577.33
2018-09-24T01:13:11.096Z,101577.68
2018-09-24T01:15:39.941Z,101586.56
2018-09-24T01:18:08.798Z,101590.00
2018-09-24T01:20:37.644Z,101599.95
2018-09-24T01:23:06.899Z,101587.98
2018-09-24T01:25:35.732Z,101602.61
2018-09-24T01:28:05.381Z,101604.39
2018-09-24T01:30:35.597Z,101615.61
2018-09-24T01:33:04.449Z,101619.95
2018-09-24T01:35:33.265Z,101618.17
2018-09-24T01:38:03.056Z,101627.78
2018-09-24T01:40:31.905Z,101634.38
2018-09-24T01:43:00.692Z,101637.50
2018-09-24T01:45:29.836Z,101647.37
2018-09-24T01:47:58.645Z,101644.36
2018-09-24T01:50:27.475Z,101654.64
2018-09-24T01:53:01.246Z,101651.59
2018-09-24T01:55:30.178Z,101660.09
2018-09-24T01:57:58.996Z,101661.87
2018-09-24T02:00:27.846Z,101666.98
2018-09-24T02:02:57.015Z,101670.64
2018-09-24T02:05:25.889Z,101679.64
2018-09-24T02:07:54.761Z,101685.96
2018-09-24T02:10:25.385Z,101683.23
2018-09-24T02:12:58.337Z,101691.41
2018-09-24T02:15:31.025Z,101694.48
2018-09-24T02:18:00.259Z,101692.89
2018-09-24T02:20:29.219Z,101691.05
2018-09-24T02:22:58.065Z,101693.48
2018-09-24T02:25:26.895Z,101695.80
2018-09-24T02:27:56.031Z,101697.05
2018-09-24T02:30:25.209Z,101701.59
2018-09-24T02:32:54.048Z,101700.47
2018-09-24T02:35:22.989Z,101707.31
2018-09-24T02:37:52.108Z,101711.61
2018-09-24T02:40:23.116Z,101716.16
2018-09-24T02:42:52.075Z,101727.68
2018-09-24T02:45:21.508Z,101729.77
2018-09-24T02:47:50.377Z,101733.00
2018-09-24T02:50:19.332Z,101734.05
2018-09-24T02:52:48.491Z,101739.45
2018-09-24T02:55:18.326Z,101750.38
2018-09-24T02:57:47.323Z,101755.81
2018-09-24T03:00:21.190Z,101756.27
2018-09-24T03:02:50.271Z,101763.38
2018-09-24T03:05:19.202Z,101769.68
2018-09-24T03:07:48.040Z,101769.45
2018-09-24T03:10:16.880Z,101763.72
2018-09-24T03:12:50.660Z,101765.35
2018-09-24T03:15:19.829Z,101768.88
2018-09-24T03:17:48.757Z,101767.95
2018-09-24T03:20:18.267Z,101768.30
2018-09-24T03:23:50.784Z,101773.73
2018-09-24T03:26:20.245Z,101782.95
2018-09-24T03:28:49.286Z,101786.12
2018-09-24T03:31:18.149Z,101795.55
2018-09-24T03:33:47.275Z,101800.27
2018-09-24T03:36:17.250Z,101799.81
2018-09-24T03:38:46.111Z,101802.33
2018-09-24T03:41:15.251Z,101804.31
2018-09-24T03:43:44.110Z,101809.84
2018-09-24T03:46:12.966Z,101810.23
2018-09-24T03:48:42.122Z,101803.87
2018-09-24T03:51:10.985Z,101815.89
2018-09-24T03:53:39.841Z,101817.49
2018-09-24T03:56:08.983Z,101832.34
2018-09-24T03:58:37.826Z,101827.13
2018-09-24T04:01:06.742Z,101833.37
2018-09-24T04:03:35.902Z,101842.23
2018-09-24T04:06:10.561Z,101849.19
2018-09-24T04:08:44.480Z,101851.75
2018-09-24T04:11:18.369Z,101856.95
2018-09-24T04:13:52.593Z,101869.17
2018-09-24T04:16:27.044Z,101874.37
2018-09-24T04:19:02.128Z,101877.00
2018-09-24T04:21:36.075Z,101879.55
2018-09-24T04:24:10.816Z,101881.41
2018-09-24T04:26:44.722Z,101885.80
2018-09-24T04:29:18.635Z,101891.94
2018-09-24T04:31:52.534Z,101897.69
2018-09-24T04:34:26.603Z,101899.01
2018-09-24T04:37:00.776Z,101902.11
2018-09-24T04:39:34.775Z,101899.37
2018-09-24T04:42:11.477Z,101904.45
2018-09-24T04:44:45.345Z,101902.97
2018-09-24T04:47:19.600Z,101905.23
2018-09-24T04:49:53.455Z,101912.31
2018-09-24T04:52:27.646Z,101919.41
2018-09-24T04:55:01.533Z,101929.31
2018-09-24T04:57:35.961Z,101934.13
2018-09-24T05:00:10.951Z,101943.41
2018-09-24T05:02:44.885Z,101957.17
2018-09-24T05:05:19.083Z,101959.21
2018-09-24T05:07:52.955Z,101966.81
2018-09-24T05:10:26.987Z,101970.91
2018-09-24T05:13:01.221Z,101976.54
2018-09-24T05:15:35.568Z,101969.68
2018-09-24T05:18:10.193Z,101975.09
2018-09-24T05:20:44.468Z,101978.95
2018-09-24T05:23:18.368Z,101985.53
2018-09-24T05:25:52.282Z,101990.96
2018-09-24T05:28:26.486Z,101989.69
2018-09-24T05:31:00.540Z,101990.28
2018-09-24T05:33:34.407Z,101991.18
2018-09-24T05:36:12.176Z,102002.24
2018-09-24T05:38:46.122Z,102010.02
2018-09-24T05:41:20.358Z,102015.16
2018-09-24T05:43:54.285Z,102022.23
2018-09-24T05:46:28.474Z,102026.16
2018-09-24T05:49:02.532Z,102029.63
2018-09-24T05:51:36.986Z,102030.14
2018-09-24T05:54:11.660Z,102034.59
2018-09-24T05:56:46.074Z,102042.00
2018-09-24T05:59:20.248Z,102042.82
2018-09-24T06:01:54.157Z,102057.03
2018-09-24T06:04:28.668Z,102057.49
2018-09-24T06:07:02.610Z,102053.13
2018-09-24T06:09:36.825Z,102058.81
2018-09-24T06:12:11.449Z,102058.44
2018-09-24T06:14:45.305Z,102063.34
2018-09-24T06:17:19.121Z,102068.31
2018-09-24T06:19:53.571Z,102078.56
2018-09-24T06:22:27.437Z,102082.25
2018-09-24T06:25:01.467Z,102081.59
2018-09-24T06:27:35.381Z,102084.44
2018-09-24T06:30:10.537Z,102090.89
2018-09-24T06:32:44.562Z,102097.81
2018-09-24T06:35:19.079Z,102098.34
2018-09-24T06:37:52.999Z,102111.00
2018-09-24T06:40:27.003Z,102112.15
2018-09-24T06:43:01.267Z,102123.39
2018-09-24T06:45:35.175Z,102129.98
2018-09-24T06:48:09.952Z,102123.88
2018-09-24T06:50:43.863Z,102132.75
2018-09-24T06:53:18.047Z,102131.27
2018-09-24T06:55:51.954Z,102133.12
2018-09-24T06:58:25.850Z,102132.16
2018-09-24T07:00:59.765Z,102137.86
2018-09-24T07:03:33.944Z,102140.39
2018-09-24T07:06:08.047Z,102151.87
2018-09-24T07:08:41.960Z,102154.19
2018-09-24T07:11:16.184Z,102155.45
2018-09-24T07:13:50.049Z,102161.58
2018-09-24T07:16:24.318Z,102171.35
2018-09-24T07:18:58.351Z,102174.72
2018-09-24T07:21:32.288Z,102171.46
2018-09-24T07:24:06.153Z,102178.98
2018-09-24T07:26:40.279Z,102175.93
2018-09-24T07:29:14.469Z,102181.69
2018-09-24T07:31:48.853Z,102188.36
2018-09-24T07:34:23.052Z,102190.04
2018-09-24T07:36:57.427Z,102193.43
2018-09-24T07:39:31.648Z,102191.72
2018-09-24T07:42:05.619Z,102200.53
2018-09-24T07:44:39.778Z,102193.47
2018-09-24T07:47:13.901Z,102197.75
2018-09-24T07:49:48.326Z,102202.92
2018-09-24T07:52:22.254Z,102208.59
2018-09-24T07:54:56.131Z,102203.55
2018-09-24T07:57:29.926Z,102210.53
2018-09-24T08:00:04.169Z,102214.08
2018-09-24T08:02:38.036Z,102213.95
2018-09-24T08:05:11.951Z,102220.14
2018-09-24T08:07:46.052Z,102226.94
2018-09-24T08:10:19.931Z,102228.23
2018-09-24T08:12:53.881Z,102234.50
2018-09-24T08:15:27.741Z,102245.50
2018-09-24T08:18:03.716Z,102247.16
2018-09-24T08:20:37.591Z,102249.05
2018-09-24T08:23:12.022Z,102246.45
2018-09-24T08:25:45.878Z,102244.70
2018-09-24T08:28:20.331Z,102248.06
2018-09-24T08:30:54.230Z,102252.95
2018-09-24T08:33:28.121Z,102254.88
2018-09-24T08:36:03.321Z,102264.05
2018-09-24T08:38:37.136Z,102261.68
2018-09-24T08:41:11.493Z,102267.97
2018-09-24T08:43:45.388Z,102272.44
2018-09-24T08:46:19.475Z,102270.50
2018-09-24T08:48:53.394Z,102268.57
2018-09-24T08:51:27.655Z,102266.08
2018-09-24T08:54:03.407Z,102274.22
2018-09-24T08:56:37.773Z,102277.24
2018-09-24T08:59:11.645Z,102273.33
2018-09-24T09:01:45.727Z,102272.26
2018-09-24T09:04:19.865Z,102274.19
2018-09-24T09:06:53.705Z,102271.53
2018-09-24T09:09:27.673Z,102270.77
2018-09-24T09:12:02.810Z,102277.52
2018-09-24T09:14:36.822Z,102277.33
2018-09-24T09:17:11.339Z,102270.30
2018-09-24T09:19:45.233Z,102269.77
2018-09-24T09:22:19.480Z,102272.83
2018-09-24T09:24:53.347Z,102278.53
2018-09-24T09:27:27.251Z,102276.66
2018-09-24T09:30:02.244Z,102278.64
2018-09-24T09:32:36.556Z,102277.66
2018-09-24T09:35:10.466Z,102281.23
2018-09-24T09:37:44.407Z,102282.31
2018-09-24T09:40:18.634Z,102281.88
2018-09-24T09:42:52.522Z,102272.00
2018-09-24T09:45:26.466Z,102274.59
2018-09-24T09:48:00.688Z,102268.72
2018-09-24T09:50:34.551Z,102260.02
2018-09-24T09:53:08.590Z,102261.57
2018-09-24T09:55:42.698Z,102258.31
2018-09-24T09:58:17.699Z,102261.38
2018-09-24T10:00:51.670Z,102251.45
2018-09-24T10:03:25.530Z,102262.05
2018-09-24T10:05:59.417Z,102258.76
2018-09-24T10:08:33.487Z,102257.78
2018-09-24T10:11:07.403Z,102258.44
2018-09-24T10:13:41.580Z,102267.86
2018-09-24T10:16:15.476Z,102272.01
2018-09-24T10:18:49.716Z,102272.98
2018-09-24T10:21:23.585Z,102272.25
2018-09-24T10:23:58.760Z,102282.56
2018-09-24T10:26:32.872Z,102280.61
2018-09-24T10:29:07.214Z,102288.92
2018-09-24T10:31:41.125Z,102291.62
2018-09-24T10:34:15.214Z,102296.03
2018-09-24T10:36:49.217Z,102291.90
2018-09-24T10:39:23.417Z,102289.07
2018-09-24T10:41:57.810Z,102292.42
2018-09-24T10:44:31.676Z,102280.95
2018-09-24T10:47:05.896Z,102289.66
2018-09-24T10:49:39.806Z,102296.71
2018-09-24T10:52:13.960Z,102294.70
2018-09-24T10:54:48.068Z,102299.56
2018-09-24T10:57:22.246Z,102295.38
2018-09-24T10:59:56.338Z,102302.21
2018-09-24T11:02:30.263Z,102300.28
2018-09-24T11:05:04.281Z,102293.84
2018-09-24T11:07:38.293Z,102295.04
2018-09-24T11:10:12.751Z,102294.89
2018-09-24T11:12:46.843Z,102292.09
2018-09-24T11:15:20.924Z,102294.83
2018-09-24T11:17:55.120Z,102293.86
2018-09-24T11:20:29.334Z,102290.73
2018-09-24T11:23:03.269Z,102285.03
2018-09-24T11:25:37.211Z,102283.82
2018-09-24T11:28:12.432Z,102275.89
2018-09-24T11:30:46.568Z,102275.34
2018-09-24T11:33:20.809Z,102279.62
2018-09-24T11:35:54.691Z,102274.73
2018-09-24T11:38:28.862Z,102275.09
2018-09-24T11:41:02.941Z,102273.48
2018-09-24T11:43:36.851Z,102269.48
2018-09-24T11:46:12.412Z,102269.16
2018-09-24T11:48:47.692Z,102257.26
2018-09-24T11:51:22.849Z,102251.89
2018-09-24T11:53:56.974Z,102252.12
2018-09-24T11:56:30.862Z,102242.98
2018-09-24T11:59:05.065Z,102247.56
2018-09-24T12:01:38.968Z,102240.98
2018-09-24T12:04:12.957Z,102246.13
2018-09-24T12:06:47.382Z,102236.79
2018-09-24T12:09:21.352Z,102233.22
2018-09-24T12:11:55.507Z,102236.03
2018-09-24T12:14:29.404Z,102241.83
2018-09-24T12:17:03.631Z,102242.44
2018-09-24T12:19:37.502Z,102247.59
2018-09-24T12:22:11.397Z,102223.98
2018-09-24T12:24:45.222Z,102234.61
2018-09-24T12:27:19.664Z,102231.70
2018-09-24T12:29:53.570Z,102226.04
2018-09-24T12:32:27.907Z,102230.37
2018-09-24T12:35:02.106Z,102220.09
2018-09-24T12:37:36.332Z,102222.07
2018-09-24T12:40:10.994Z,102220.77
2018-09-24T12:42:45.070Z,102225.78
2018-09-24T12:45:18.966Z,102220.77
2018-09-24T12:47:52.902Z,102219.25
2018-09-24T12:50:28.113Z,102215.36
2018-09-24T12:53:02.073Z,102213.96
2018-09-24T12:55:36.348Z,102216.80
2018-09-24T12:58:11.027Z,102218.06
2018-09-24T13:00:48.841Z,102218.44
2018-09-24T13:03:22.804Z,102223.58
2018-09-24T13:05:57.095Z,102228.38
2018-09-24T13:08:31.134Z,102220.27
2018-09-24T13:11:05.011Z,102219.33
2018-09-24T13:13:39.224Z,102219.80
2018-09-24T13:16:13.148Z,102223.84
2018-09-24T13:18:47.026Z,102229.00
2018-09-24T13:21:21.126Z,102234.98
2018-09-24T13:23:55.063Z,102224.02
2018-09-24T13:26:29.285Z,102224.06
2018-09-24T13:29:03.188Z,102230.03
2018-09-24T13:31:37.669Z,102225.95
2018-09-24T13:34:11.679Z,102223.64
2018-09-24T13:36:45.679Z,102218.05
2018-09-24T13:39:19.885Z,102204.51
2018-09-24T13:41:53.703Z,102207.70
2018-09-24T13:44:27.663Z,102205.89
2018-09-24T13:47:01.644Z,102198.86
2018-09-24T13:49:35.745Z,102204.67
2018-09-24T13:52:10.786Z,102204.52
2018-09-24T13:54:45.077Z,102199.33
2018-09-24T13:57:18.953Z,102206.00
2018-09-24T13:59:53.161Z,102202.91
2018-09-24T14:02:27.036Z,102204.76
2018-09-24T14:05:01.567Z,102197.84
2018-09-24T14:07:35.951Z,102185.16
2018-09-24T14:10:11.118Z,102190.73
2018-09-24T14:12:45.398Z,102182.30
2018-09-24T14:15:26.335Z,102182.56
2018-09-24T14:18:00.601Z,102177.55
2018-09-24T14:20:34.626Z,102175.87
2018-09-24T14:23:08.700Z,102181.16
2018-09-24T14:25:42.602Z,102179.89
2018-09-24T14:28:17.023Z,102182.92
2018-09-24T14:30:50.945Z,102185.77
2018-09-24T14:33:24.826Z,102182.13
2018-09-24T14:35:58.741Z,102179.77
2018-09-24T14:38:32.781Z,102187.62
2018-09-24T14:41:07.085Z,102178.59
2018-09-24T14:43:41.020Z,102176.27
2018-09-24T14:46:14.975Z,102174.89
2018-09-24T14:48:49.104Z,102179.22
2018-09-24T14:51:22.987Z,102183.69
2018-09-24T14:53:56.934Z,102170.50
2018-09-24T14:56:30.774Z,102180.66
2018-09-24T14:59:05.159Z,102172.39
2018-09-24T15:01:39.427Z,102166.96
2018-09-24T15:04:13.981Z,102172.27
2018-09-24T15:06:48.017Z,102163.13
2018-09-24T15:09:21.855Z,102164.32
2018-09-24T15:11:56.097Z,102170.15
2018-09-24T15:14:30.322Z,102172.97
2018-09-24T15:17:04.404Z,102174.08
2018-09-24T15:19:38.770Z,102174.37
2018-09-24T15:22:12.800Z,102177.36
2018-09-24T15:24:46.904Z,102184.22
2018-09-24T15:27:20.863Z,102181.16
2018-09-24T15:29:54.716Z,102183.45
2018-09-24T15:32:28.573Z,102183.72
2018-09-24T15:35:02.628Z,102186.65
2018-09-24T15:37:36.964Z,102193.84
2018-09-24T15:40:11.708Z,102189.45
2018-09-24T15:42:45.899Z,102195.28
2018-09-24T15:45:19.738Z,102187.20
2018-09-24T15:47:53.933Z,102189.41
2018-09-24T15:50:27.807Z,102188.12
2018-09-24T15:53:02.520Z,102188.40
2018-09-24T15:55:36.427Z,102186.00
2018-09-24T15:58:11.276Z,102185.17
2018-09-24T16:00:45.469Z,102183.18
2018-09-24T16:03:19.380Z,102185.86
2018-09-24T16:05:53.851Z,102190.20
2018-09-24T16:08:27.858Z,102193.13
2018-09-24T16:11:02.081Z,102189.94
2018-09-24T16:13:36.128Z,102184.85
2018-09-24T16:16:12.098Z,102184.88
2018-09-24T16:18:45.978Z,102195.23
2018-09-24T16:21:20.401Z,102193.59
2018-09-24T16:23:54.424Z,102191.67
2018-09-24T16:26:28.622Z,102194.74
2018-09-24T16:29:02.679Z,102197.40
2018-09-24T16:31:36.946Z,102200.48
2018-09-24T16:34:11.030Z,102202.58
2018-09-24T16:36:44.931Z,102203.01
2018-09-24T16:39:18.876Z,102217.38
2018-09-24T16:41:52.749Z,102220.70
2018-09-24T16:44:26.926Z,102215.65
2018-09-24T16:47:00.806Z,102217.62
2018-09-24T16:49:35.220Z,102216.36
2018-09-24T16:52:10.908Z,102230.58
2018-09-24T16:54:44.764Z,102234.36
2018-09-24T16:57:19.034Z,102223.77
2018-09-24T16:59:52.984Z,102224.48
2018-09-24T17:02:28.381Z,102234.77
2018-09-24T17:05:06.239Z,102236.84
2018-09-24T17:07:44.282Z,102238.43
2018-09-24T17:10:18.584Z,102240.91
2018-09-24T17:12:52.453Z,102245.36
2018-09-24T17:15:26.693Z,102245.42
2018-09-24T17:18:00.588Z,102247.30
2018-09-24T17:20:34.528Z,102248.75
2018-09-24T17:23:08.352Z,102252.71
2018-09-24T17:25:42.733Z,102259.84
2018-09-24T17:28:16.710Z,102263.19
2018-09-24T17:30:50.696Z,102262.09
2018-09-24T17:33:25.077Z,102265.16
2018-09-24T17:35:59.714Z,102276.86
2018-09-24T17:38:33.542Z,102276.00
2018-09-24T17:41:07.436Z,102280.75
2018-09-24T17:43:41.566Z,102286.06
2018-09-24T17:46:15.785Z,102286.29
2018-09-24T17:48:49.883Z,102294.98
2018-09-24T17:51:24.145Z,102293.95
2018-09-24T17:53:58.041Z,102302.62
2018-09-24T17:56:32.452Z,102311.87
2018-09-24T17:59:06.577Z,102311.95
2018-09-24T18:01:41.009Z,102316.05
2018-09-24T18:04:15.751Z,102310.04
2018-09-24T18:06:50.331Z,102312.31
2018-09-24T18:09:24.616Z,102312.53
2018-09-24T18:11:59.169Z,102316.38
2018-09-24T18:14:33.589Z,102318.27
2018-09-24T18:17:07.979Z,102325.91
2018-09-24T18:19:42.221Z,102335.33
2018-09-24T18:22:16.740Z,102339.91
2018-09-24T18:24:50.813Z,102345.13
2018-09-24T18:27:25.341Z,102346.41
2018-09-24T18:29:59.823Z,102350.55
2018-09-24T18:32:34.480Z,102356.94
2018-09-24T18:35:08.875Z,102359.43
2018-09-24T18:37:43.065Z,102361.47
2018-09-24T18:40:17.549Z,102369.42
2018-09-24T18:42:51.731Z,102369.88
2018-09-24T18:45:26.116Z,102375.77
2018-09-24T18:48:00.667Z,102374.27
2018-09-24T18:50:35.105Z,102379.00
2018-09-24T18:53:09.663Z,102379.21
2018-09-24T18:55:43.954Z,102385.09
2018-09-24T18:58:18.558Z,102379.83
2018-09-24T19:00:52.862Z,102396.94
2018-09-24T19:03:27.068Z,102393.03
2018-09-24T19:06:01.382Z,102395.27
2018-09-24T19:08:36.002Z,102401.33
2018-09-24T19:11:10.334Z,102402.92
2018-09-24T19:13:44.872Z,102407.84
2018-09-24T19:16:19.073Z,102407.96
2018-09-24T19:18:53.361Z,102411.15
2018-09-24T19:21:28.042Z,102415.59
2018-09-24T19:24:03.090Z,102413.86
2018-09-24T19:26:37.544Z,102427.81
2018-09-24T19:29:11.895Z,102432.14
2018-09-24T19:31:46.559Z,102441.15
2018-09-24T19:34:20.478Z,102442.55
2018-09-24T19:36:55.038Z,102448.23
2018-09-24T19:39:28.933Z,102443.34
2018-09-24T19:42:03.621Z,102448.45
2018-09-24T19:44:37.816Z,102449.81
2018-09-24T19:47:11.907Z,102448.29
2018-09-24T19:49:45.971Z,102451.94
2018-09-24T19:52:20.179Z,102452.39
2018-09-24T19:54:54.383Z,102454.19
2018-09-24T19:57:28.301Z,102447.73
2018-09-24T20:00:03.320Z,102453.35
2018-09-24T20:02:37.305Z,102457.02
2018-09-24T20:05:11.351Z,102454.09
2018-09-24T20:07:45.317Z,102454.50
2018-09-24T20:10:19.185Z,102460.11
2018-09-24T20:12:53.342Z,102462.76
2018-09-24T20:15:27.217Z,102464.60
2018-09-24T20:18:01.792Z,102463.91
2018-09-24T20:20:36.726Z,102463.28
2018-09-24T20:23:11.155Z,102469.40
2018-09-24T20:25:45.108Z,102478.31
2018-09-24T20:28:19.977Z,102467.91
2018-09-24T20:30:54.083Z,102473.82
2018-09-24T20:33:29.079Z,102475.09
2018-09-24T20:36:03.466Z,102476.44
2018-09-24T20:38:37.383Z,102480.69
2018-09-24T20:41:11.759Z,102473.03
2018-09-24T20:43:45.760Z,102480.91
2018-09-24T20:46:19.865Z,102484.78
2018-09-24T20:48:53.849Z,102481.08
2018-09-24T20:51:28.286Z,102483.38
2018-09-24T20:54:04.407Z,102481.83
2018-09-24T20:56:38.858Z,102489.98
2018-09-24T20:59:18.742Z,102491.41
2018-09-24T21:01:54.416Z,102494.44
2018-09-24T21:04:28.587Z,102501.02
2018-09-24T21:07:02.872Z,102497.66
2018-09-24T21:09:36.858Z,102493.59
2018-09-24T21:12:11.618Z,102489.63
2018-09-24T21:14:45.938Z,102506.98
2018-09-24T21:17:20.077Z,102501.42
2018-09-24T21:19:53.978Z,102496.30
2018-09-24T21:22:28.666Z,102506.17
2018-09-24T21:25:02.726Z,102507.34
2018-09-24T21:27:37.457Z,102503.08
2018-09-24T21:30:11.417Z,102504.91
2018-09-24T21:33:00.008Z,102516.91
2018-09-24T21:35:33.917Z,102518.25
2018-09-24T21:38:08.107Z,102514.97
2018-09-24T21:40:42.185Z,102513.80
2018-09-24T21:43:16.249Z,102519.09
2018-09-24T21:45:50.622Z,102527.22
2018-09-24T21:48:24.641Z,102529.92
2018-09-24T21:50:58.885Z,102520.78
2018-09-24T21:53:32.904Z,102520.84
2018-09-24T21:56:07.409Z,102524.00
2018-09-24T21:58:41.738Z,102529.65
2018-09-24T22:01:15.618Z,102532.95
2018-09-24T22:03:49.610Z,102529.66
2018-09-24T22:06:24.128Z,102537.70
2018-09-24T22:08:58.083Z,102535.66
2018-09-24T22:11:32.401Z,102545.36
2018-09-24T22:14:06.344Z,102542.25
2018-09-24T22:16:40.266Z,102542.77
2018-09-24T22:19:14.687Z,102542.09
2018-09-24T22:21:48.648Z,102545.52
2018-09-24T22:24:22.960Z,102550.02
2018-09-24T22:26:56.912Z,102551.91
2018-09-24T22:29:30.797Z,102550.84
2018-09-24T22:32:04.673Z,102548.56
2018-09-24T22:34:38.634Z,102553.36
2018-09-24T22:37:12.799Z,102551.98
2018-09-24T22:39:46.914Z,102554.40
2018-09-24T22:42:20.769Z,102552.06
2018-09-24T22:44:54.642Z,102550.36
2018-09-24T22:47:28.781Z,102555.91
2018-09-24T22:50:03.877Z,102553.50
2018-09-24T22:52:38.046Z,102556.09
2018-09-24T22:55:11.928Z,102553.39
2018-09-24T22:57:45.861Z,102559.05
2018-09-24T23:00:19.830Z,102561.30
2018-09-24T23:02:54.035Z,102560.75
2018-09-24T23:05:27.942Z,102560.17
2018-09-24T23:08:02.604Z,102561.44
2018-09-24T23:10:36.609Z,102565.45
2018-09-24T23:13:10.551Z,102571.05
2018-09-24T23:15:44.477Z,102566.16
2018-09-24T23:18:18.346Z,102562.25
2018-09-24T23:20:52.496Z,102565.92
2018-09-24T23:23:26.405Z,102563.20
2018-09-24T23:26:00.257Z,102566.03
2018-09-24T23:28:34.389Z,102560.70
2018-09-24T23:31:08.313Z,102559.12
2018-09-24T23:33:42.245Z,102565.55
2018-09-24T23:36:16.555Z,102572.45
2018-09-24T23:38:50.581Z,102576.91
2018-09-24T23:41:24.557Z,102580.33
2018-09-24T23:43:58.638Z,102576.81
2018-09-24T23:46:32.525Z,102578.11
2018-09-24T23:49:06.617Z,102579.08
2018-09-24T23:51:40.592Z,102579.63
2018-09-24T23:54:14.841Z,102574.78
2018-09-24T23:56:48.730Z,102575.91
2018-09-24T23:59:22.593Z,102579.41
